Time;durP1;ratioP1;P1;durP2;ratioP2;P2;SDS_P1;SDS_P2;PMS_P1;PMS_P2;Temp;Humidity;BMP_temperature;BMP_pressure;BME280_temperature;BME280_humidity;BME280_pressure;Samples;Min_cycle;Max_cycle;Signal;HPM_P1;HPM_P2
2022/12/17 13:06:55;;;;;;;79.63;57.20;;;13.10;55.50;;;;;;4924106;28;89302;-53
2022/12/17 13:09:32;;;;;;;80.32;57.60;;;13.20;55.50;;;;;;4920440;28;95094;-53
2022/12/17 13:12:01;;;;;;;81.13;58.28;;;13.20;55.10;;;;;;4927122;28;90542;-52
2022/12/17 13:14:35;;;;;;;78.68;56.85;;;13.30;54.80;;;;;;4929181;28;92292;-52
2022/12/17 13:17:11;;;;;;;87.70;58.53;;;13.30;54.70;;;;;;4924206;28;91107;-52
2022/12/17 13:19:39;;;;;;;81.47;58.28;;;13.40;54.30;;;;;;4926132;28;89725;-54
2022/12/17 13:22:27;;;;;;;81.90;58.13;;;13.40;54.00;;;;;;4926824;28;91484;-52
2022/12/17 13:25:14;;;;;;;82.05;57.83;;;13.50;53.80;;;;;;4918937;28;90075;-56
2022/12/17 13:27:40;;;;;;;81.22;58.13;;;13.50;53.60;;;;;;4926009;28;89818;-55
2022/12/17 13:30:21;;;;;;;82.10;58.17;;;13.50;53.40;;;;;;4926829;28;91825;-53
2022/12/17 13:33:23;;;;;;;80.38;58.40;;;13.50;53.20;;;;;;4930594;28;89485;-54
2022/12/17 13:35:57;;;;;;;79.55;57.03;;;13.50;53.00;;;;;;4918757;28;94525;-54
2022/12/17 13:38:37;;;;;;;77.78;57.08;;;13.60;52.80;;;;;;4923564;28;90047;-55
2022/12/17 13:41:20;;;;;;;83.28;58.00;;;13.60;52.70;;;;;;4925739;28;91555;-55
2022/12/17 13:43:58;;;;;;;79.95;58.03;;;13.60;52.50;;;;;;4926714;28;90291;-54
2022/12/17 13:46:27;;;;;;;79.80;56.72;;;13.60;52.60;;;;;;4919235;28;91973;-54
2022/12/17 13:49:00;;;;;;;79.53;57.53;;;13.60;52.30;;;;;;4924984;28;91419;-55
2022/12/17 13:51:32;;;;;;;78.80;57.63;;;13.50;52.30;;;;;;4923904;28;90836;-54
2022/12/17 13:53:59;;;;;;;;;;;13.50;52.40;;;;;;4923334;28;96450;-54
2022/12/17 13:56:28;;;;;;;78.55;56.15;;;13.50;52.20;;;;;;4931085;28;90333;-53
2022/12/17 13:58:56;;;;;;;80.18;56.65;;;13.40;52.10;;;;;;4925557;28;89736;-51
2022/12/17 14:01:22;;;;;;;79.47;56.45;;;13.40;52.20;;;;;;4919947;28;89717;-51
2022/12/17 14:04:01;;;;;;;83.28;59.53;;;13.30;52.00;;;;;;4916912;28;90532;-54
2022/12/17 14:06:35;;;;;;;86.93;58.13;;;13.30;52.00;;;;;;4928162;28;92717;-54
2022/12/17 14:09:01;;;;;;;86.82;59.28;;;13.30;52.10;;;;;;4933924;28;90841;-52
2022/12/17 14:14:27;;;;;;;83.38;58.30;;;13.30;51.80;;;;;;4925429;28;91359;-56
2022/12/17 14:16:54;;;;;;;90.20;58.67;;;13.20;51.80;;;;;;4914691;28;91733;-54
2022/12/17 14:19:23;;;;;;;84.47;58.83;;;13.20;51.60;;;;;;4922477;28;89663;-54
2022/12/17 14:21:49;;;;;;;89.32;58.75;;;13.20;51.70;;;;;;4929921;28;89845;-53
2022/12/17 14:24:17;;;;;;;85.93;58.70;;;13.20;51.80;;;;;;4927618;28;93760;-54
2022/12/17 14:26:50;;;;;;;86.47;59.17;;;13.20;51.90;;;;;;4915754;28;90951;-54
2022/12/17 14:29:25;;;;;;;84.72;59.78;;;13.30;52.00;;;;;;4921983;28;89661;-55
2022/12/17 14:32:20;;;;;;;83.90;59.03;;;13.30;52.20;;;;;;4921205;28;90571;-53
2022/12/17 14:34:45;;;;;;;80.15;58.35;;;13.30;52.50;;;;;;4920059;28;89565;-54
2022/12/17 14:37:16;;;;;;;83.75;58.38;;;13.30;52.90;;;;;;4926931;28;91896;-51
2022/12/17 14:39:45;;;;;;;82.20;59.17;;;13.30;53.10;;;;;;4928807;28;89776;-54
2022/12/17 14:42:29;;;;;;;83.78;59.45;;;13.30;53.50;;;;;;4926424;28;89914;-54
2022/12/17 14:45:06;;;;;;;86.75;58.15;;;13.30;53.70;;;;;;4923485;28;92475;-55
2022/12/17 14:47:36;;;;;;;84.97;59.28;;;13.30;53.70;;;;;;4922690;28;95678;-54
2022/12/17 14:50:11;;;;;;;87.43;58.55;;;13.20;53.90;;;;;;4925437;28;90406;-54
2022/12/17 14:52:45;;;;;;;83.95;59.13;;;13.20;54.00;;;;;;4929274;28;90410;-53
2022/12/17 14:55:29;;;;;;;84.55;60.15;;;13.20;54.30;;;;;;4922900;28;89843;-54
2022/12/17 14:58:10;;;;;;;84.78;59.42;;;13.20;54.20;;;;;;4924603;28;91390;-53
2022/12/17 15:00:45;;;;;;;83.97;59.88;;;13.20;54.30;;;;;;4921706;28;91424;-54
2022/12/17 15:03:26;;;;;;;82.97;59.63;;;13.30;54.10;;;;;;4914097;28;90424;-55
2022/12/17 15:06:01;;;;;;;88.25;60.65;;;13.30;54.10;;;;;;4925063;28;89993;-54
2022/12/17 15:08:36;;;;;;;86.72;59.92;;;13.30;54.10;;;;;;4921359;28;91153;-55
2022/12/17 15:11:02;;;;;;;83.97;59.83;;;13.40;53.90;;;;;;4929740;28;90384;-54
2022/12/17 15:13:27;;;;;;;84.90;59.80;;;13.40;53.90;;;;;;4920066;28;92722;-55
2022/12/17 15:15:53;;;;;;;88.72;60.25;;;13.40;53.80;;;;;;4918844;28;89689;-54
2022/12/17 15:18:18;;;;;;;84.03;58.40;;;13.50;53.70;;;;;;4922846;28;96996;-52
2022/12/17 15:20:44;;;;;;;82.93;59.53;;;13.50;53.70;;;;;;4926740;28;89835;-53
2022/12/17 15:23:17;;;;;;;90.15;59.15;;;13.60;53.50;;;;;;4916867;28;93221;-55
2022/12/17 15:25:44;;;;;;;85.15;59.72;;;13.60;53.40;;;;;;4930966;28;90260;-52
2022/12/17 15:28:10;;;;;;;81.45;57.50;;;13.60;53.10;;;;;;4923630;28;96734;-56
2022/12/17 15:30:37;;;;;;;81.47;58.78;;;13.60;53.00;;;;;;4930449;28;90136;-52
2022/12/17 15:33:02;;;;;;;83.65;59.63;;;13.60;53.10;;;;;;4925047;28;90156;-47
2022/12/17 15:35:28;;;;;;;82.22;60.20;;;13.60;53.20;;;;;;4914334;28;90295;-53
2022/12/17 15:37:54;;;;;;;87.13;59.00;;;13.60;52.90;;;;;;4932625;28;90766;-55
2022/12/17 15:40:20;;;;;;;81.82;59.25;;;13.60;52.70;;;;;;4925340;28;89467;-52
2022/12/17 15:45:30;;;;;;;83.90;59.15;;;13.70;52.60;;;;;;4914840;28;90387;-50
2022/12/17 15:47:56;;;;;;;82.35;59.40;;;13.70;52.80;;;;;;4917135;28;92086;-49
2022/12/17 15:50:22;;;;;;;86.07;59.55;;;13.70;52.90;;;;;;4927873;28;93192;-49
2022/12/17 15:52:47;;;;;;;84.10;59.15;;;13.60;52.70;;;;;;4935638;28;89522;-51
2022/12/17 15:55:13;;;;;;;83.07;59.67;;;13.40;53.30;;;;;;4931140;28;90054;-54
2022/12/17 15:57:39;;;;;;;83.00;58.47;;;13.40;53.70;;;;;;4930021;28;91399;-52
2022/12/17 16:00:06;;;;;;;83.95;59.50;;;13.40;53.70;;;;;;4933798;28;93261;-50
2022/12/17 16:02:31;;;;;;;81.03;58.70;;;13.50;53.70;;;;;;4932393;28;90094;-50
2022/12/17 16:04:58;;;;;;;81.68;58.05;;;13.60;53.60;;;;;;4923621;28;88679;-48
2022/12/17 16:07:24;;;;;;;84.10;60.08;;;13.50;53.50;;;;;;4925801;28;90889;-51
2022/12/17 16:09:49;;;;;;;82.90;58.78;;;13.50;53.80;;;;;;4928340;28;90278;-50
2022/12/17 16:12:15;;;;;;;82.45;59.40;;;13.50;53.90;;;;;;4927492;28;90332;-51
2022/12/17 16:14:41;;;;;;;82.57;58.90;;;13.50;53.70;;;;;;4921341;28;90529;-52
2022/12/17 16:17:06;;;;;;;81.63;59.80;;;13.60;53.50;;;;;;4922581;28;90130;-51
2022/12/17 16:19:32;;;;;;;83.43;58.65;;;13.60;53.80;;;;;;4934925;28;89850;-56
2022/12/17 16:21:58;;;;;;;81.00;59.08;;;13.60;53.60;;;;;;4930719;28;91663;-50
2022/12/17 16:24:23;;;;;;;82.07;59.08;;;13.70;53.60;;;;;;4914408;28;89504;-51
2022/12/17 16:26:49;;;;;;;83.63;58.88;;;13.60;53.20;;;;;;4925815;28;91368;-50
2022/12/17 16:29:15;;;;;;;82.68;58.70;;;13.60;53.60;;;;;;4930019;28;92297;-49
2022/12/17 16:31:40;;;;;;;81.35;58.47;;;13.60;53.80;;;;;;4919755;28;92895;-52
2022/12/17 16:34:10;;;;;;;82.70;58.67;;;13.60;53.60;;;;;;4921000;28;90219;-51
2022/12/17 16:36:36;;;;;;;82.30;58.70;;;13.60;53.80;;;;;;4925383;28;92189;-53
2022/12/17 16:39:02;;;;;;;79.88;59.00;;;13.60;53.70;;;;;;4922588;28;96763;-50
2022/12/17 16:41:28;;;;;;;81.50;58.05;;;13.50;54.00;;;;;;4916980;28;90801;-52
2022/12/17 16:43:54;;;;;;;82.45;59.03;;;13.40;53.70;;;;;;4931121;28;89568;-52
2022/12/17 16:46:32;;;;;;;83.68;60.80;;;13.40;53.60;;;;;;4925207;28;90459;-54
2022/12/17 16:49:03;;;;;;;86.60;61.60;;;13.30;53.80;;;;;;4916031;28;91545;-53
2022/12/17 16:51:29;;;;;;;87.07;61.63;;;13.30;53.70;;;;;;4921444;28;89327;-53
2022/12/17 16:53:55;;;;;;;83.38;61.50;;;13.40;53.30;;;;;;4930237;28;89567;-53
2022/12/17 16:56:26;;;;;;;88.05;60.15;;;13.40;53.00;;;;;;4929866;28;92431;-53
2022/12/17 16:58:52;;;;;;;83.80;60.00;;;13.40;52.80;;;;;;4930669;28;92338;-53
2022/12/17 17:01:22;;;;;;;83.70;59.88;;;13.30;52.90;;;;;;4919208;28;90626;-53
2022/12/17 17:03:48;;;;;;;81.13;59.28;;;13.40;52.70;;;;;;4925841;28;91065;-50
2022/12/17 17:06:16;;;;;;;81.70;59.40;;;13.40;52.60;;;;;;4929193;28;89705;-52
2022/12/17 17:08:42;;;;;;;81.97;59.17;;;13.40;52.50;;;;;;4929179;28;89841;-49
2022/12/17 17:11:12;;;;;;;79.65;58.58;;;13.40;52.40;;;;;;4931452;28;89647;-50
2022/12/17 17:13:39;;;;;;;81.75;59.22;;;13.50;52.20;;;;;;4926511;28;90084;-54
2022/12/17 17:16:06;;;;;;;81.60;59.75;;;13.50;52.40;;;;;;4928276;28;89251;-51
2022/12/17 17:18:32;;;;;;;81.95;59.08;;;13.50;52.20;;;;;;4930039;28;89782;-50
2022/12/17 17:21:14;;;;;;;84.90;59.22;;;13.50;52.10;;;;;;4925927;28;90355;-49
2022/12/17 17:23:40;;;;;;;81.93;58.92;;;13.50;52.30;;;;;;4929375;28;92243;-49
2022/12/17 17:26:06;;;;;;;83.25;58.67;;;13.50;52.40;;;;;;4933113;28;90745;-52
2022/12/17 17:28:31;;;;;;;81.65;58.58;;;13.50;52.30;;;;;;4926982;28;91073;-51
2022/12/17 17:31:01;;;;;;;79.70;58.35;;;13.50;52.30;;;;;;4922417;28;94559;-52
2022/12/17 17:33:47;;;;;;;81.13;58.67;;;13.50;52.30;;;;;;4925121;28;92583;-50
2022/12/17 17:36:24;;;;;;;78.45;58.28;;;13.60;52.20;;;;;;4928149;28;91553;-50
2022/12/17 17:38:54;;;;;;;82.85;58.58;;;13.60;52.10;;;;;;4927451;28;89840;-53
2022/12/17 17:41:23;;;;;;;79.40;58.63;;;13.60;52.00;;;;;;4927954;28;90027;-49
2022/12/17 17:43:57;;;;;;;79.80;57.67;;;13.70;52.00;;;;;;4929083;28;91998;-50
2022/12/17 17:46:24;;;;;;;79.65;57.97;;;13.70;52.00;;;;;;4930607;28;91029;-49
2022/12/17 17:48:50;;;;;;;81.82;57.83;;;13.80;51.90;;;;;;4933954;28;91142;-51
2022/12/17 17:51:22;;;;;;;77.60;57.33;;;13.80;51.80;;;;;;4922663;28;90297;-58
2022/12/17 17:53:50;;;;;;;79.55;56.92;;;13.80;51.80;;;;;;4933155;28;89645;-52
2022/12/17 17:56:21;;;;;;;81.28;58.10;;;13.80;51.80;;;;;;4928869;28;91057;-53
2022/12/17 17:58:55;;;;;;;78.07;57.50;;;13.80;52.10;;;;;;4926641;28;89553;-51
2022/12/17 18:01:26;;;;;;;77.45;57.65;;;13.80;51.90;;;;;;4928888;28;89960;-50
2022/12/17 18:03:55;;;;;;;78.80;57.75;;;13.90;52.10;;;;;;4926229;28;92665;-52
2022/12/17 18:06:20;;;;;;;79.72;58.35;;;13.90;51.80;;;;;;4927823;28;89966;-50
2022/12/17 18:08:46;;;;;;;78.07;57.92;;;14.00;51.90;;;;;;4927964;28;90713;-51
2022/12/17 18:11:15;;;;;;;81.43;58.65;;;13.90;52.10;;;;;;4932720;28;89544;-52
2022/12/17 18:13:54;;;;;;;80.85;58.67;;;14.00;52.50;;;;;;4924807;28;89883;-51
2022/12/17 18:16:25;;;;;;;79.75;57.40;;;14.00;52.80;;;;;;4925603;28;91469;-49
2022/12/17 18:18:53;;;;;;;79.50;59.17;;;14.00;53.60;;;;;;4914307;28;90724;-51
2022/12/17 18:21:20;;;;;;;89.07;59.65;;;13.90;57.80;;;;;;4934071;28;90189;-53
2022/12/17 18:23:46;;;;;;;86.32;61.47;;;13.70;56.70;;;;;;4920244;28;89781;-51
2022/12/17 18:26:18;;;;;;;82.60;59.25;;;13.50;57.30;;;;;;4920688;28;89679;-52
2022/12/17 18:28:46;;;;;;;82.05;59.25;;;13.40;57.30;;;;;;4918323;28;93146;-52
2022/12/17 18:31:20;;;;;;;92.80;67.80;;;13.40;57.40;;;;;;4923154;28;94116;-49
2022/12/17 18:33:50;;;;;;;88.35;62.05;;;13.40;64.30;;;;;;4932232;28;89070;-49
2022/12/17 18:36:25;;;;;;;84.57;60.95;;;13.60;62.50;;;;;;4929352;28;90248;-53
2022/12/17 18:39:05;;;;;;;85.72;59.97;;;13.70;60.60;;;;;;4926558;28;91239;-52
2022/12/17 18:44:16;;;;;;;86.13;60.05;;;13.90;62.40;;;;;;4921851;28;93876;-50
2022/12/17 18:46:42;;;;;;;83.25;59.83;;;14.00;63.20;;;;;;4923787;28;89775;-55
2022/12/17 18:49:11;;;;;;;95.35;66.53;;;14.00;64.70;;;;;;4933448;28;90477;-52
2022/12/17 18:51:39;;;;;;;92.72;63.72;;;14.00;71.50;;;;;;4936399;28;90157;-54
2022/12/17 18:54:06;;;;;;;84.80;60.85;;;14.10;72.50;;;;;;4918889;28;89721;-54
2022/12/17 18:56:33;;;;;;;87.07;61.33;;;14.20;70.20;;;;;;4924433;28;93550;-53
2022/12/17 18:58:59;;;;;;;82.80;61.05;;;14.20;66.90;;;;;;4923818;28;89829;-51
2022/12/17 19:01:30;;;;;;;82.20;59.20;;;14.20;65.10;;;;;;4919335;28;90862;-53
2022/12/17 19:03:56;;;;;;;82.05;60.20;;;14.10;64.00;;;;;;4917630;28;92918;-51
2022/12/17 19:06:23;;;;;;;89.03;60.05;;;14.10;63.30;;;;;;4920102;28;90784;-52
2022/12/17 19:08:50;;;;;;;84.25;59.05;;;14.10;62.50;;;;;;4930594;28;91394;-52
2022/12/17 19:11:20;;;;;;;85.65;60.22;;;14.10;61.90;;;;;;4928107;28;94810;-51
2022/12/17 19:13:47;;;;;;;83.28;59.60;;;14.10;61.50;;;;;;4927987;28;91090;-54
2022/12/17 19:16:25;;;;;;;83.70;60.03;;;14.10;61.10;;;;;;4927028;28;90154;-53
2022/12/17 19:19:01;;;;;;;86.65;60.42;;;14.10;60.80;;;;;;4922360;28;90155;-52
2022/12/17 19:21:28;;;;;;;83.40;59.38;;;14.10;60.40;;;;;;4927907;28;90438;-53
2022/12/17 19:23:57;;;;;;;82.30;59.42;;;14.10;60.20;;;;;;4925399;28;89851;-53
2022/12/17 19:26:23;;;;;;;80.38;58.50;;;14.00;59.90;;;;;;4922727;28;95336;-54
2022/12/17 19:28:51;;;;;;;81.90;58.63;;;13.90;59.90;;;;;;4925636;28;91005;-52
2022/12/17 19:31:18;;;;;;;83.57;59.53;;;13.80;60.10;;;;;;4935702;28;90816;-49
2022/12/17 19:33:44;;;;;;;83.10;59.55;;;13.80;59.70;;;;;;4926008;28;90797;-52
2022/12/17 19:36:16;;;;;;;83.60;58.40;;;13.70;59.90;;;;;;4921196;28;91433;-53
2022/12/17 19:38:41;;;;;;;82.95;59.83;;;13.70;59.90;;;;;;4923868;28;91614;-53
2022/12/17 19:41:16;;;;;;;84.50;59.60;;;13.70;59.70;;;;;;4931330;28;90121;-51
2022/12/17 19:43:43;;;;;;;87.80;61.83;;;13.60;59.70;;;;;;4944281;28;89934;-50
2022/12/17 19:46:19;;;;;;;91.00;62.38;;;13.60;59.50;;;;;;4933000;28;89713;-51
2022/12/17 19:48:46;;;;;;;86.05;60.65;;;13.50;59.70;;;;;;4936633;28;89611;-51
2022/12/17 19:51:14;;;;;;;85.35;60.25;;;13.50;59.40;;;;;;4931269;28;89446;-53
2022/12/17 19:53:41;;;;;;;79.82;58.25;;;13.50;59.40;;;;;;4926654;28;91065;-52
2022/12/17 19:56:20;;;;;;;84.95;58.90;;;13.40;59.40;;;;;;4927068;28;96516;-52
2022/12/17 19:58:52;;;;;;;80.43;58.90;;;13.40;59.30;;;;;;4924314;28;92075;-51
2022/12/17 20:01:19;;;;;;;87.22;59.42;;;13.40;59.20;;;;;;4932584;28;89564;-53
2022/12/17 20:03:46;;;;;;;80.15;58.15;;;13.40;59.20;;;;;;4925125;28;90904;-50
2022/12/17 20:06:14;;;;;;;81.70;58.08;;;13.30;59.30;;;;;;4933876;28;89529;-50
2022/12/17 20:08:40;;;;;;;84.68;58.95;;;13.30;59.30;;;;;;4933808;28;95383;-49
2022/12/17 20:11:31;;;;;;;84.10;58.47;;;13.30;59.30;;;;;;4929955;28;90184;-53
2022/12/17 20:14:09;;;;;;;81.68;59.03;;;13.30;59.00;;;;;;4928625;28;88900;-53
2022/12/17 20:16:41;;;;;;;;;;;13.30;59.00;;;;;;4932989;28;89538;-52
2022/12/17 20:19:11;;;;;;;80.85;57.97;;;13.30;58.60;;;;;;4936658;28;90261;-52
2022/12/17 20:21:37;;;;;;;76.85;57.17;;;13.20;58.60;;;;;;4926480;28;91793;-52
2022/12/17 20:24:03;;;;;;;81.72;59.85;;;13.20;58.50;;;;;;4930767;28;90153;-51
2022/12/17 20:26:29;;;;;;;81.55;58.58;;;13.20;58.60;;;;;;4931244;28;93596;-50
2022/12/17 20:28:55;;;;;;;79.55;58.13;;;13.10;58.50;;;;;;4933612;28;89571;-53
2022/12/17 20:31:20;;;;;;;80.70;58.70;;;13.10;58.60;;;;;;4930859;28;89980;-52
2022/12/17 20:33:46;;;;;;;78.43;58.88;;;13.10;58.30;;;;;;4926659;28;89311;-56
2022/12/17 20:36:18;;;;;;;81.72;58.65;;;13.10;58.30;;;;;;4938076;28;89943;-50
2022/12/17 20:38:44;;;;;;;81.65;59.17;;;13.10;58.20;;;;;;4927996;28;90572;-54
2022/12/17 20:41:14;;;;;;;81.03;58.53;;;13.10;58.30;;;;;;4923144;28;91331;-52
2022/12/17 20:43:40;;;;;;;80.03;57.97;;;13.00;58.30;;;;;;4937947;28;89394;-53
2022/12/17 20:46:08;;;;;;;83.70;58.33;;;13.00;58.40;;;;;;4925384;28;91001;-54
2022/12/17 20:48:35;;;;;;;80.78;57.95;;;13.00;58.50;;;;;;4926596;28;90284;-50
2022/12/17 20:51:08;;;;;;;82.03;58.25;;;13.00;58.40;;;;;;4931821;28;91873;-53
2022/12/17 20:53:35;;;;;;;77.97;57.72;;;12.90;58.40;;;;;;4918878;28;95773;-52
2022/12/17 20:56:03;;;;;;;79.70;57.85;;;12.90;58.60;;;;;;4927968;28;89610;-50
2022/12/17 20:58:29;;;;;;;78.78;58.10;;;12.80;58.50;;;;;;4927707;28;89777;-49
2022/12/17 21:01:15;;;;;;;81.30;58.47;;;12.80;58.40;;;;;;4924183;28;91723;-52
2022/12/17 21:03:41;;;;;;;80.65;58.92;;;12.80;58.60;;;;;;4930180;28;92257;-53
2022/12/17 21:06:10;;;;;;;79.22;58.38;;;12.80;58.40;;;;;;4927504;28;89656;-49
2022/12/17 21:08:36;;;;;;;79.43;57.83;;;12.80;58.50;;;;;;4932778;28;89520;-54
2022/12/17 21:11:02;;;;;;;79.72;57.83;;;12.80;58.50;;;;;;4922301;28;91028;-50
2022/12/17 21:13:28;;;;;;;79.15;57.70;;;12.70;58.30;;;;;;4916948;28;91264;-52
2022/12/17 21:15:55;;;;;;;79.75;58.10;;;12.70;58.40;;;;;;4926975;28;90294;-53
2022/12/17 21:18:21;;;;;;;79.90;58.17;;;12.60;58.20;;;;;;4922666;28;89907;-53
2022/12/17 21:21:01;;;;;;;81.07;58.92;;;12.60;58.30;;;;;;4922549;28;95909;-54
2022/12/17 21:23:28;;;;;;;84.20;58.80;;;12.60;58.30;;;;;;4937454;28;90301;-53
2022/12/17 21:26:07;;;;;;;81.00;58.88;;;12.50;58.40;;;;;;4934561;28;90112;-50
2022/12/17 21:28:34;;;;;;;80.55;59.05;;;12.50;58.40;;;;;;4929321;28;89520;-52
2022/12/17 21:31:01;;;;;;;78.25;57.70;;;12.40;58.20;;;;;;4919174;28;92453;-50
2022/12/17 21:33:27;;;;;;;81.00;58.75;;;12.40;58.30;;;;;;4926883;28;89729;-54
2022/12/17 21:36:04;;;;;;;83.70;58.60;;;12.40;58.20;;;;;;4928720;28;91855;-51
2022/12/17 21:38:30;;;;;;;84.18;59.78;;;12.30;58.10;;;;;;4924340;28;90411;-51
2022/12/17 21:41:07;;;;;;;79.63;58.30;;;12.30;58.10;;;;;;4935944;28;89359;-50
2022/12/17 21:43:35;;;;;;;79.32;57.55;;;12.30;57.90;;;;;;4925769;28;89844;-51
2022/12/17 21:46:02;;;;;;;79.80;58.63;;;12.30;57.70;;;;;;4930932;28;89481;-52
2022/12/17 21:48:28;;;;;;;78.55;58.30;;;12.30;57.80;;;;;;4931763;28;89448;-53
2022/12/17 21:50:54;;;;;;;84.88;59.42;;;12.20;57.70;;;;;;4924308;28;92715;-53
2022/12/17 21:53:20;;;;;;;82.10;58.22;;;12.20;57.80;;;;;;4926616;28;92817;-50
2022/12/17 21:55:46;;;;;;;80.00;59.53;;;12.20;57.60;;;;;;4927986;28;89892;-52
2022/12/17 21:58:14;;;;;;;81.07;58.67;;;12.20;57.60;;;;;;4934459;28;91154;-52
2022/12/17 22:00:40;;;;;;;79.23;57.93;;;12.20;57.70;;;;;;4926673;28;92355;-53
2022/12/17 22:03:05;;;;;;;77.63;58.00;;;12.10;57.40;;;;;;4927874;28;89246;-52
2022/12/17 22:05:31;;;;;;;77.03;58.27;;;12.10;57.30;;;;;;4930121;28;89403;-54
2022/12/17 22:07:58;;;;;;;80.28;58.70;;;12.10;57.40;;;;;;4926291;28;89513;-50
2022/12/17 22:10:23;;;;;;;78.25;58.55;;;12.10;57.50;;;;;;4926448;28;90828;-52
2022/12/17 22:15:33;;;;;;;81.43;59.05;;;12.00;57.60;;;;;;4924518;28;89571;-50
2022/12/17 22:17:59;;;;;;;79.32;58.20;;;12.00;57.10;;;;;;4933589;28;90050;-52
2022/12/17 22:20:24;;;;;;;81.50;59.07;;;12.00;56.80;;;;;;4923032;28;89880;-50
2022/12/17 22:22:50;;;;;;;80.17;58.90;;;12.00;56.80;;;;;;4929911;28;89400;-54
2022/12/17 22:25:16;;;;;;;81.25;58.15;;;12.00;56.80;;;;;;4923470;28;93317;-49
2022/12/17 22:27:41;;;;;;;80.57;58.30;;;12.00;56.80;;;;;;4925340;28;91775;-50
2022/12/17 22:33:02;;;;;;;79.40;59.30;;;11.90;56.70;;;;;;4927459;28;92340;-52
2022/12/17 22:35:41;;;;;;;80.25;58.70;;;11.90;56.60;;;;;;4930677;28;92557;-51
2022/12/17 22:38:08;;;;;;;80.07;58.77;;;11.80;56.70;;;;;;4928288;28;91117;-53
2022/12/17 22:40:34;;;;;;;79.00;58.37;;;11.80;56.50;;;;;;4924654;28;90708;-51
2022/12/17 22:45:45;;;;;;;78.43;58.53;;;11.80;56.40;;;;;;4928097;28;89908;-49
2022/12/17 22:48:11;;;;;;;79.43;58.50;;;11.80;56.40;;;;;;4926640;28;89595;-50
2022/12/17 22:50:38;;;;;;;80.43;59.07;;;11.80;56.40;;;;;;4936040;28;90235;-51
2022/12/17 22:53:04;;;;;;;79.43;58.83;;;11.80;56.30;;;;;;4929917;28;89450;-53
2022/12/17 22:55:30;;;;;;;76.60;57.77;;;11.70;56.10;;;;;;4930022;28;90573;-51
2022/12/17 22:57:56;;;;;;;77.23;59.53;;;11.70;56.20;;;;;;4933599;28;89275;-53
2022/12/17 23:00:28;;;;;;;78.33;58.70;;;11.70;55.80;;;;;;4934316;28;93883;-52
2022/12/17 23:02:54;;;;;;;79.40;58.33;;;11.70;55.80;;;;;;4929978;28;89250;-49
2022/12/17 23:05:21;;;;;;;82.30;60.17;;;11.60;55.90;;;;;;4925751;28;89556;-53
2022/12/17 23:07:48;;;;;;;77.80;59.17;;;11.70;55.60;;;;;;4932912;28;89815;-51
2022/12/17 23:10:14;;;;;;;81.67;59.27;;;11.70;55.60;;;;;;4932318;28;91869;-51
2022/12/17 23:12:49;;;;;;;82.10;59.20;;;11.60;55.60;;;;;;4931616;28;93182;-52
2022/12/17 23:15:20;;;;;;;80.03;59.50;;;11.60;55.30;;;;;;4930936;28;96175;-54
2022/12/17 23:17:46;;;;;;;82.23;59.27;;;11.60;55.40;;;;;;4938104;28;90939;-53
2022/12/17 23:20:12;;;;;;;81.40;59.17;;;11.60;55.40;;;;;;4937433;28;92123;-53
2022/12/17 23:22:37;;;;;;;82.07;59.30;;;11.50;55.20;;;;;;4934675;28;91574;-54
2022/12/17 23:25:03;;;;;;;79.87;58.60;;;11.60;55.40;;;;;;4934339;28;91739;-50
2022/12/17 23:27:30;;;;;;;80.90;59.67;;;11.50;55.20;;;;;;4933930;28;89543;-52
2022/12/17 23:29:55;;;;;;;80.10;59.07;;;11.50;55.30;;;;;;4935442;28;89428;-49
2022/12/17 23:32:21;;;;;;;78.93;59.07;;;11.50;55.20;;;;;;4933784;28;89177;-49
2022/12/17 23:34:47;;;;;;;80.10;59.57;;;11.50;55.20;;;;;;4928141;28;89901;-51
2022/12/17 23:37:13;;;;;;;78.80;59.03;;;11.40;55.00;;;;;;4931071;28;89486;-51
2022/12/17 23:39:38;;;;;;;79.57;58.63;;;11.40;54.90;;;;;;4938001;28;90441;-53
2022/12/17 23:42:04;;;;;;;76.40;57.93;;;11.40;54.80;;;;;;4933911;28;89255;-50
2022/12/17 23:44:29;;;;;;;79.00;59.70;;;11.40;54.80;;;;;;4925072;28;89549;-49
2022/12/17 23:46:55;;;;;;;78.77;58.53;;;11.40;54.70;;;;;;4930577;28;90330;-50
2022/12/17 23:49:21;;;;;;;79.40;58.23;;;11.40;54.70;;;;;;4929331;28;89233;-51
2022/12/17 23:51:46;;;;;;;77.50;57.67;;;11.30;54.70;;;;;;4938262;28;89649;-52
2022/12/17 23:54:12;;;;;;;79.77;58.60;;;11.30;54.90;;;;;;4939404;28;89423;-52
2022/12/17 23:56:38;;;;;;;81.07;58.93;;;11.30;54.80;;;;;;4935626;28;89834;-50
2022/12/17 23:59:03;;;;;;;77.57;58.10;;;11.30;54.80;;;;;;4926165;28;90341;-51
